Time;durP1;ratioP1;P1;durP2;ratioP2;P2;SDS_P1;SDS_P2;PMS_P1;PMS_P2;Temp;Humidity;BMP_temperature;BMP_pressure;BME280_temperature;BME280_humidity;BME280_pressure;Samples;Min_cycle;Max_cycle;Signal;HPM_P1;HPM_P2
2022/10/15 00:01:14;;;;;;;19.02;13.55;;;13.70;99.90;;;-144.05;88.90;125687.94;5016237;28;20033;-84
2022/10/15 00:03:43;;;;;;;20.02;13.57;;;13.70;99.90;;;-144.05;88.91;125687.94;5016622;28;20030;-83
2022/10/15 00:06:18;;;;;;;17.83;13.02;;;13.70;99.90;;;-144.05;88.81;125687.94;5032944;28;20025;-84
2022/10/15 00:08:46;;;;;;;19.75;13.05;;;13.60;99.90;;;-144.05;89.11;125687.94;5016044;28;20037;-83
2022/10/15 00:11:21;;;;;;;18.60;13.05;;;13.70;99.90;;;-144.05;88.72;125687.94;5016185;28;20137;-83
2022/10/15 00:13:48;;;;;;;17.10;12.63;;;13.70;99.90;;;-144.05;89.18;125687.94;5016393;28;20034;-83
2022/10/15 00:16:21;;;;;;;17.30;13.32;;;13.60;99.90;;;-144.05;89.31;125687.94;5032593;28;20179;-83
2022/10/15 00:18:49;;;;;;;21.50;13.45;;;13.60;99.90;;;-144.05;89.04;125687.94;5016230;28;20029;-83
2022/10/15 00:21:20;;;;;;;18.90;14.40;;;13.60;99.90;;;-144.05;89.33;125687.94;5033763;28;20030;-85
2022/10/15 00:23:47;;;;;;;17.42;13.18;;;13.60;99.90;;;-144.05;89.13;125687.94;5034024;28;20030;-85
2022/10/15 00:26:22;;;;;;;16.95;12.52;;;13.50;99.90;;;-144.05;89.19;125687.94;5016026;28;20112;-84
2022/10/15 00:28:56;;;;;;;17.38;12.90;;;13.50;99.90;;;-144.05;89.21;125687.94;5015365;28;20037;-84
2022/10/15 00:31:26;;;;;;;13.75;10.75;;;13.50;99.90;;;-144.05;88.80;125687.94;5016245;28;20026;-84
2022/10/15 00:33:55;;;;;;;16.85;12.98;;;13.50;99.90;;;-144.05;88.88;125687.94;5017299;28;20072;-85
2022/10/15 00:36:30;;;;;;;18.92;11.35;;;13.40;99.90;;;-144.05;88.90;125687.94;5015920;28;20095;-84
2022/10/15 00:38:56;;;;;;;17.50;12.37;;;13.40;99.90;;;-144.05;88.71;125687.94;5032177;28;20041;-83
2022/10/15 00:41:40;;;;;;;14.60;10.75;;;13.30;99.90;;;-144.05;88.66;125687.94;5015945;28;20029;-85
2022/10/15 00:44:21;;;;;;;14.50;10.52;;;13.20;99.90;;;-144.05;88.89;125687.94;5032388;28;20029;-84
2022/10/15 00:47:23;;;;;;;14.77;11.38;;;13.10;99.90;;;-144.05;88.70;125687.94;5032072;28;20053;-84
2022/10/15 00:50:13;;;;;;;14.38;11.65;;;13.00;99.90;;;-144.05;88.99;125687.94;5015375;28;20017;-86
2022/10/15 00:53:00;;;;;;;18.45;12.48;;;13.00;99.90;;;-144.05;89.17;125687.94;5015434;28;20116;-84
2022/10/15 00:55:32;;;;;;;17.27;12.90;;;12.90;99.90;;;-144.05;89.51;125687.94;5031737;28;20139;-85
2022/10/15 00:58:08;;;;;;;16.88;12.75;;;12.80;99.90;;;-144.05;89.73;125687.94;5033461;28;20029;-83
2022/10/15 01:00:34;;;;;;;20.50;13.90;;;12.90;99.90;;;-144.05;89.76;125687.94;5015476;28;20029;-84
2022/10/15 01:03:00;;;;;;;21.58;14.35;;;12.80;99.90;;;-144.05;89.93;125687.94;5015268;28;20124;-84
2022/10/15 01:05:27;;;;;;;22.52;13.43;;;12.80;99.90;;;-144.05;89.63;125687.94;5015449;28;20374;-83
2022/10/15 01:07:53;;;;;;;23.73;14.80;;;12.80;99.90;;;-144.05;90.11;125687.94;5031753;28;20029;-84
2022/10/15 01:10:21;;;;;;;20.85;15.30;;;12.80;99.90;;;-144.05;90.27;125687.94;5015375;28;20052;-83
2022/10/15 01:13:15;;;;;;;23.95;15.05;;;12.80;99.90;;;-144.05;90.54;125687.94;5015279;28;20033;-84
2022/10/15 01:15:56;;;;;;;19.45;14.73;;;12.80;99.90;;;-144.05;89.99;125687.94;5015299;28;20026;-83
2022/10/15 01:19:06;;;;;;;23.05;15.77;;;12.80;99.90;;;-144.05;91.03;125687.94;5015086;28;20393;-84
2022/10/15 01:21:54;;;;;;;25.67;15.95;;;12.80;99.90;;;-144.05;90.59;125687.94;5033204;28;20026;-83
2022/10/15 01:25:01;;;;;;;25.35;15.65;;;12.90;99.90;;;-144.05;91.40;125687.94;5031637;28;20036;-83
2022/10/15 01:27:42;;;;;;;27.52;17.05;;;12.90;99.90;;;-144.05;91.36;125687.94;5015403;28;20017;-85
2022/10/15 01:30:38;;;;;;;27.67;18.90;;;13.00;99.90;;;-144.05;91.56;125687.94;5015003;28;20366;-84
2022/10/15 01:33:52;;;;;;;27.48;18.48;;;13.10;99.90;;;-144.05;91.40;125687.94;5015028;28;20504;-83
2022/10/15 01:36:33;;;;;;;24.38;16.58;;;13.10;99.90;;;-144.05;90.83;125687.94;5014897;28;20029;-84
2022/10/15 01:39:30;;;;;;;21.08;14.85;;;13.10;99.90;;;-144.05;90.72;125687.94;5014678;28;20025;-84
2022/10/15 01:42:16;;;;;;;22.15;16.52;;;13.10;99.90;;;-144.05;90.62;125687.94;5014636;28;20075;-84
2022/10/15 01:44:56;;;;;;;23.48;15.00;;;13.10;99.90;;;-144.05;90.61;125687.94;5031166;28;20076;-84
2022/10/15 01:47:47;;;;;;;21.50;14.80;;;13.00;99.90;;;-144.05;90.31;125687.94;5017740;28;20037;-83
2022/10/15 01:50:19;;;;;;;20.13;13.98;;;13.00;99.90;;;-144.05;90.47;125687.94;5039271;28;20048;-84
2022/10/15 01:52:49;;;;;;;18.17;12.60;;;13.00;99.90;;;-144.05;90.22;125687.94;5032506;28;20041;-84
2022/10/15 01:55:20;;;;;;;22.10;15.07;;;12.90;99.90;;;-144.05;90.45;125687.94;5031057;28;20116;-84
2022/10/15 01:57:48;;;;;;;18.27;13.52;;;12.90;99.90;;;-144.05;90.51;125687.94;5014240;28;20099;-83
2022/10/15 02:00:16;;;;;;;19.75;13.82;;;12.80;99.90;;;-144.05;90.29;125687.94;5014384;28;20028;-84
2022/10/15 02:02:42;;;;;;;17.85;13.43;;;12.80;99.90;;;-144.05;90.30;125687.94;5014341;28;20370;-84
2022/10/15 02:05:23;;;;;;;22.38;15.32;;;12.70;99.90;;;-144.05;90.43;125687.94;5014655;28;20022;-84
2022/10/15 02:08:13;;;;;;;25.63;16.52;;;12.70;99.90;;;-144.05;90.82;125687.94;5014825;28;20048;-85
2022/10/15 02:10:59;;;;;;;21.98;14.98;;;12.70;99.90;;;-144.05;90.57;125687.94;5016205;28;20025;-87
2022/10/15 02:14:23;;;;;;;20.92;15.45;;;12.70;99.90;;;-144.05;90.46;125687.94;5014684;28;20039;-85
2022/10/15 02:17:09;;;;;;;24.95;16.55;;;12.60;99.90;;;-144.05;91.31;125687.94;4993464;28;20072;-83
2022/10/15 02:20:19;;;;;;;23.27;15.77;;;12.60;99.90;;;-144.05;90.83;125687.94;4993464;28;20117;-83
2022/10/15 02:23:06;;;;;;;21.27;15.55;;;12.60;99.90;;;-144.05;90.91;125687.94;5020013;28;20381;-85
2022/10/15 02:25:38;;;;;;;25.15;18.42;;;12.60;99.90;;;-144.05;91.02;125687.94;5032146;28;20079;-84
2022/10/15 02:28:08;;;;;;;30.38;17.75;;;12.60;99.90;;;-144.05;91.61;125687.94;5014059;28;20477;-82
2022/10/15 02:30:39;;;;;;;27.27;17.73;;;12.70;99.90;;;-144.05;91.68;125687.94;5030489;28;20034;-84
2022/10/15 02:33:07;;;;;;;27.20;19.02;;;12.80;99.90;;;-144.05;91.32;125687.94;5031927;28;20444;-83
2022/10/15 02:35:35;;;;;;;24.08;16.95;;;12.90;99.90;;;-144.05;90.98;125687.94;5031855;28;20496;-85
2022/10/15 02:38:07;;;;;;;25.52;16.67;;;12.90;99.90;;;-144.05;90.89;125687.94;5014317;28;20041;-85
2022/10/15 02:40:37;;;;;;;21.40;15.32;;;13.00;99.90;;;-144.05;90.92;125687.94;5031618;28;20084;-84
2022/10/15 02:43:09;;;;;;;24.27;15.20;;;12.90;99.90;;;-144.05;90.88;125687.94;5014165;28;20029;-85
2022/10/15 02:45:36;;;;;;;30.17;16.80;;;12.90;99.90;;;-144.05;91.07;125687.94;5013960;28;20025;-84
2022/10/15 02:48:04;;;;;;;24.48;16.88;;;12.90;99.90;;;-144.05;91.22;125687.94;5013926;28;20030;-83
2022/10/15 02:50:30;;;;;;;25.75;16.40;;;12.90;99.90;;;-144.05;91.03;125687.94;5030139;28;20124;-84
2022/10/15 02:52:55;;;;;;;24.30;17.00;;;13.00;99.90;;;-144.05;91.18;125687.94;5033926;28;20033;-84
2022/10/15 02:55:21;;;;;;;22.95;16.75;;;13.00;99.90;;;-144.05;90.93;125687.94;5017785;28;20034;-86
2022/10/15 02:57:47;;;;;;;24.67;16.20;;;13.00;99.90;;;-144.05;90.95;125687.94;5034400;28;20040;-85
2022/10/15 03:00:14;;;;;;;23.60;15.10;;;13.00;99.90;;;-144.05;90.94;125687.94;5017613;28;20033;-84
2022/10/15 03:02:40;;;;;;;25.83;17.27;;;13.00;99.90;;;-144.05;90.98;125687.94;5017921;28;20056;-84
2022/10/15 03:05:06;;;;;;;25.20;17.27;;;13.00;99.90;;;-144.05;91.08;125687.94;5017996;28;20392;-83
2022/10/15 03:07:32;;;;;;;27.65;16.42;;;13.00;99.90;;;-144.05;91.07;125687.94;5018122;28;20025;-84
2022/10/15 03:09:58;;;;;;;24.77;16.45;;;12.90;99.90;;;-144.05;90.84;125687.94;5034217;28;20082;-85
2022/10/15 03:12:24;;;;;;;35.35;19.65;;;12.90;99.90;;;-144.05;91.10;125687.94;5018010;28;20029;-86
2022/10/15 03:14:52;;;;;;;28.88;18.75;;;12.90;99.90;;;-144.05;91.15;125687.94;5017709;28;20029;-84
2022/10/15 03:17:18;;;;;;;35.65;20.15;;;12.90;99.90;;;-144.05;91.20;125687.94;5017867;28;20057;-85
2022/10/15 03:19:44;;;;;;;38.10;22.33;;;12.90;99.90;;;-144.05;91.76;125687.94;5017442;28;20029;-84
2022/10/15 03:22:10;;;;;;;39.08;21.52;;;13.00;99.90;;;-144.05;91.42;125687.94;5017775;28;20032;-84
2022/10/15 03:24:36;;;;;;;36.25;21.20;;;13.00;99.90;;;-144.05;91.14;125687.94;5034882;28;20026;-84
2022/10/15 03:27:02;;;;;;;36.00;20.42;;;13.00;99.90;;;-144.05;90.93;125687.94;5034852;28;20025;-82
2022/10/15 03:29:28;;;;;;;37.15;20.70;;;13.00;99.90;;;-144.05;90.83;125687.94;5017973;28;20117;-84
2022/10/15 03:31:54;;;;;;;38.67;20.52;;;13.00;99.90;;;-144.05;90.77;125687.94;5021489;28;20053;-84
2022/10/15 03:34:20;;;;;;;38.20;19.98;;;12.90;99.90;;;-144.05;91.18;125687.94;5017174;28;20030;-83
2022/10/15 03:36:46;;;;;;;34.45;21.25;;;12.90;99.90;;;-144.05;91.20;125687.94;5017133;28;20120;-83
2022/10/15 03:39:13;;;;;;;30.33;20.05;;;12.90;99.90;;;-144.05;91.51;125687.94;5035122;28;20125;-83
2022/10/15 03:41:39;;;;;;;36.25;21.30;;;12.90;99.90;;;-144.05;91.68;125687.94;5017023;28;20022;-86
2022/10/15 03:44:07;;;;;;;32.50;19.85;;;12.90;99.90;;;-144.05;91.53;125687.94;5016783;28;20048;-85
2022/10/15 03:46:34;;;;;;;34.03;20.80;;;13.00;99.90;;;-144.05;91.43;125687.94;5016963;28;20029;-84
2022/10/15 03:49:01;;;;;;;31.42;19.65;;;13.00;99.90;;;-144.05;91.08;125687.94;5017060;28;20049;-85
2022/10/15 03:51:27;;;;;;;31.05;20.13;;;13.00;99.90;;;-144.05;91.27;125687.94;5034941;28;20113;-87
2022/10/15 03:53:53;;;;;;;33.30;21.42;;;13.00;99.90;;;-144.05;90.94;125687.94;5029177;28;20025;-77
2022/10/15 03:56:20;;;;;;;28.80;19.15;;;13.00;99.90;;;-144.05;90.69;125687.94;5042107;28;20036;-79
2022/10/15 03:58:46;;;;;;;31.27;20.20;;;12.90;99.90;;;-144.05;90.45;125687.94;5018870;28;20592;-85
2022/10/15 04:01:16;;;;;;;27.30;17.20;;;12.90;99.90;;;-144.05;90.14;125687.94;5017019;28;20041;-86
2022/10/15 04:03:42;;;;;;;28.08;19.27;;;12.90;99.90;;;-144.05;90.09;125687.94;5015533;28;20033;-85
2022/10/15 04:06:09;;;;;;;25.00;18.10;;;12.80;99.90;;;-144.05;90.02;125687.94;5033349;28;20021;-86
2022/10/15 04:08:35;;;;;;;28.75;19.48;;;12.70;99.90;;;-144.05;90.14;125687.94;5016614;28;20025;-84
2022/10/15 04:11:01;;;;;;;27.75;17.58;;;12.60;99.90;;;-144.05;89.69;125687.94;5016680;28;20029;-84
2022/10/15 04:13:28;;;;;;;29.88;19.02;;;12.50;99.90;;;-144.05;90.05;125687.94;5016483;28;20048;-84
2022/10/15 04:15:54;;;;;;;34.30;21.50;;;12.50;99.90;;;-144.05;90.92;125687.94;5034123;28;20075;-84
2022/10/15 04:18:22;;;;;;;36.47;22.73;;;12.40;99.90;;;-144.05;90.78;125687.94;5016093;28;20029;-84
2022/10/15 04:20:48;;;;;;;36.30;22.58;;;12.40;99.90;;;-144.05;90.69;125687.94;5016149;28;20445;-84
2022/10/15 04:23:16;;;;;;;37.42;22.40;;;12.30;99.90;;;-144.05;90.64;125687.94;5016121;28;20021;-84
2022/10/15 04:25:42;;;;;;;36.95;22.50;;;12.30;99.90;;;-144.05;90.60;125687.94;5033805;28;20388;-85
2022/10/15 04:28:08;;;;;;;36.22;22.27;;;12.30;99.90;;;-144.05;90.52;125687.94;5033744;28;20084;-86
2022/10/15 04:30:34;;;;;;;40.85;24.40;;;12.30;99.90;;;-144.05;90.80;125687.94;5016235;28;20033;-87
2022/10/15 04:33:00;;;;;;;41.30;23.65;;;12.20;99.90;;;-144.05;90.49;125687.94;5033801;28;20107;-85
2022/10/15 04:35:26;;;;;;;44.35;25.30;;;12.20;99.90;;;-144.05;90.78;125687.94;5016040;28;20034;-84
2022/10/15 04:37:52;;;;;;;42.97;25.88;;;12.20;99.90;;;-144.05;90.93;125687.94;5015609;28;20033;-84
2022/10/15 04:40:18;;;;;;;43.22;24.20;;;12.20;99.90;;;-144.05;90.87;125687.94;5015519;28;20029;-84
2022/10/15 04:42:44;;;;;;;48.30;26.27;;;12.20;99.90;;;-144.05;90.97;125687.94;5017115;28;20052;-84
2022/10/15 04:45:10;;;;;;;42.50;24.92;;;12.30;99.90;;;-144.05;90.67;125687.94;5033970;28;20033;-86
2022/10/15 04:47:36;;;;;;;43.60;26.20;;;12.20;99.90;;;-144.05;90.90;125687.94;5017886;28;20033;-86
2022/10/15 04:50:03;;;;;;;36.05;22.25;;;12.20;99.90;;;-144.05;90.48;125687.94;5017000;28;20075;-85
2022/10/15 04:52:29;;;;;;;37.45;22.48;;;12.30;99.90;;;-144.05;90.45;125687.94;5034799;28;20032;-85
2022/10/15 04:54:54;;;;;;;47.58;26.55;;;12.30;99.90;;;-144.05;90.79;125687.94;5017157;28;20120;-86
2022/10/15 04:57:20;;;;;;;51.03;28.58;;;12.30;99.90;;;-144.05;90.67;125687.94;5033853;28;20026;-85
2022/10/15 04:59:46;;;;;;;51.80;28.23;;;12.30;99.90;;;-144.05;90.85;125687.94;5017295;28;20033;-83
2022/10/15 05:02:12;;;;;;;52.92;30.23;;;12.30;99.90;;;-144.05;90.92;125687.94;5017009;28;20052;-84
2022/10/15 05:04:38;;;;;;;53.53;29.92;;;12.30;99.90;;;-144.05;91.04;125687.94;5033791;28;20045;-84
2022/10/15 05:07:04;;;;;;;52.47;30.40;;;12.30;99.90;;;-144.05;91.08;125687.94;5017608;28;20028;-85
2022/10/15 05:09:30;;;;;;;51.70;28.88;;;12.30;99.90;;;-144.05;91.00;125687.94;5017258;28;20144;-84
2022/10/15 05:11:55;;;;;;;52.42;28.67;;;12.30;99.90;;;-144.05;90.80;125687.94;5017421;28;20032;-85
2022/10/15 05:14:22;;;;;;;53.47;29.63;;;12.30;99.90;;;-144.05;90.90;125687.94;5034802;28;20029;-84
2022/10/15 05:16:48;;;;;;;51.60;30.05;;;12.30;99.90;;;-144.05;90.82;125687.94;5016907;28;20037;-82
2022/10/15 05:19:15;;;;;;;56.95;30.58;;;12.30;99.90;;;-144.05;91.05;125687.94;5016634;28;20033;-85
2022/10/15 05:21:42;;;;;;;56.38;31.60;;;12.40;99.90;;;-144.05;90.91;125687.94;5017090;28;20033;-83
2022/10/15 05:24:10;;;;;;;58.30;30.30;;;12.40;99.90;;;-144.05;90.69;125687.94;5017043;28;20413;-86
2022/10/15 05:26:36;;;;;;;54.90;32.17;;;12.40;99.90;;;-144.05;90.49;125687.94;5016703;28;20025;-86
2022/10/15 05:29:02;;;;;;;57.03;31.95;;;12.40;99.90;;;-144.05;90.66;125687.94;5016841;28;20033;-85
2022/10/15 05:31:32;;;;;;;55.30;30.33;;;12.40;99.90;;;-144.05;90.71;125687.94;5032541;28;20031;-84
2022/10/15 05:33:58;;;;;;;53.22;31.05;;;12.40;99.90;;;-144.05;90.54;125687.94;5016831;28;20025;-85
2022/10/15 05:36:28;;;;;;;60.22;32.25;;;12.40;99.90;;;-144.05;90.56;125687.94;5017388;28;20025;-84
2022/10/15 05:39:00;;;;;;;61.67;31.80;;;12.40;99.90;;;-144.05;90.63;125687.94;5017536;28;20037;-85
2022/10/15 05:41:28;;;;;;;54.45;30.38;;;12.40;99.90;;;-144.05;90.50;125687.94;5035229;28;20127;-82
2022/10/15 05:43:57;;;;;;;58.47;32.50;;;12.40;99.90;;;-144.05;90.57;125687.94;5017784;28;20102;-85
2022/10/15 05:46:24;;;;;;;59.88;32.38;;;12.40;99.90;;;-144.05;90.30;125687.94;5017302;28;20033;-84
2022/10/15 05:48:59;;;;;;;55.92;32.33;;;12.40;99.90;;;-144.05;90.38;125687.94;5033435;28;20022;-85
2022/10/15 05:51:27;;;;;;;52.17;30.77;;;12.30;99.90;;;-144.05;90.24;125687.94;5017485;28;20489;-84
2022/10/15 05:53:58;;;;;;;54.50;29.65;;;12.20;99.90;;;-144.05;90.15;125687.94;5017351;28;20113;-85
2022/10/15 05:56:26;;;;;;;48.97;29.20;;;12.20;99.90;;;-144.05;90.11;125687.94;5034814;28;20029;-82
2022/10/15 05:58:52;;;;;;;51.15;28.67;;;12.10;99.90;;;-144.05;89.97;125687.94;5016434;28;20532;-85
2022/10/15 06:01:18;;;;;;;53.25;30.00;;;12.10;99.90;;;-144.05;89.94;125687.94;5050331;28;20026;-78
2022/10/15 06:03:44;;;;;;;54.58;30.65;;;11.90;99.90;;;-144.05;90.02;125687.94;5047030;28;20073;-86
2022/10/15 06:06:37;;;;;;;62.35;32.67;;;11.90;99.90;;;-144.05;90.65;125687.94;5016655;28;20071;-86
2022/10/15 06:09:03;;;;;;;62.42;31.17;;;11.90;99.90;;;-144.05;91.00;125687.94;5013942;28;20038;-84
2022/10/15 06:11:28;;;;;;;61.15;32.90;;;11.90;99.90;;;-144.05;90.82;125687.94;5016787;28;20382;-84
2022/10/15 06:13:54;;;;;;;74.43;34.78;;;11.80;99.90;;;-144.05;91.53;125687.94;5033346;28;20056;-82
2022/10/15 06:16:20;;;;;;;63.72;33.63;;;11.90;99.90;;;-144.05;91.86;125687.94;5016709;28;20036;-84
2022/10/15 06:18:46;;;;;;;67.57;34.97;;;11.90;99.90;;;-144.05;91.79;125687.94;5016121;28;20029;-83
2022/10/15 06:21:12;;;;;;;71.15;34.58;;;12.00;99.90;;;-144.05;91.66;125687.94;5033023;28;20025;-82
2022/10/15 06:23:38;;;;;;;76.95;35.65;;;12.10;99.90;;;-144.05;91.54;125687.94;5016570;28;20030;-84
2022/10/15 06:26:08;;;;;;;70.10;35.00;;;12.10;99.90;;;-144.05;91.26;125687.94;5016056;28;20032;-83
2022/10/15 06:28:36;;;;;;;67.85;34.13;;;12.20;99.90;;;-144.05;91.29;125687.94;5016337;28;20021;-82
2022/10/15 06:31:04;;;;;;;66.90;34.70;;;12.30;99.90;;;-144.05;91.07;125687.94;5016615;28;20053;-82
2022/10/15 06:33:31;;;;;;;67.75;33.88;;;12.40;99.90;;;-144.05;91.23;125687.94;5016307;28;20037;-83
2022/10/15 06:36:08;;;;;;;71.03;34.90;;;12.40;99.90;;;-144.05;91.02;125687.94;5016582;28;20095;-84
2022/10/15 06:38:35;;;;;;;62.10;32.03;;;12.50;99.90;;;-144.05;90.69;125687.94;5016066;28;20059;-84
2022/10/15 06:41:06;;;;;;;61.22;32.70;;;12.50;99.90;;;-144.05;90.75;125687.94;5016221;28;20066;-82
2022/10/15 06:43:33;;;;;;;67.50;31.77;;;12.50;99.90;;;-144.05;90.94;125687.94;5016741;28;20034;-84
2022/10/15 06:46:00;;;;;;;64.53;32.55;;;12.60;99.90;;;-144.05;90.86;125687.94;5017230;28;20025;-82
2022/10/15 06:48:26;;;;;;;70.93;32.90;;;12.60;99.90;;;-144.05;90.72;125687.94;5017581;28;20049;-83
2022/10/15 06:50:52;;;;;;;68.43;33.28;;;12.70;99.90;;;-144.05;90.29;125687.94;5017043;28;20116;-84
2022/10/15 06:53:18;;;;;;;62.90;31.98;;;12.80;99.90;;;-144.05;90.17;125687.94;5017770;28;20032;-83
2022/10/15 06:55:44;;;;;;;60.08;31.02;;;12.80;99.90;;;-144.05;89.88;125687.94;5037463;28;20059;-84
2022/10/15 06:58:09;;;;;;;59.35;31.08;;;12.90;99.90;;;-144.05;89.38;125687.94;5031371;28;20538;-83
2022/10/15 07:00:35;;;;;;;62.50;30.92;;;13.00;99.90;;;-144.05;89.32;125687.94;5031903;28;20116;-82
2022/10/15 07:03:06;;;;;;;60.28;29.38;;;13.00;99.90;;;-144.05;89.46;125687.94;5014976;28;20037;-83
2022/10/15 07:05:33;;;;;;;65.22;31.40;;;13.10;99.90;;;-144.05;89.62;125687.94;5032351;28;20033;-83
2022/10/15 07:08:00;;;;;;;64.95;32.83;;;13.10;99.90;;;-144.05;89.33;125687.94;5014551;28;20029;-81
2022/10/15 07:10:28;;;;;;;66.80;32.17;;;13.10;99.90;;;-144.05;89.22;125687.94;5014875;28;20065;-83
2022/10/15 07:12:54;;;;;;;64.95;32.83;;;13.20;99.90;;;-144.05;89.19;125687.94;5014762;28;20029;-82
2022/10/15 07:15:21;;;;;;;58.90;31.42;;;13.20;99.90;;;-144.05;89.11;125687.94;5014705;28;20116;-85
2022/10/15 07:17:50;;;;;;;59.45;31.77;;;13.30;99.90;;;-144.05;88.66;125687.94;5014869;28;20034;-85
2022/10/15 07:20:18;;;;;;;56.25;30.75;;;13.30;99.90;;;-144.05;88.35;125687.94;5031637;28;20056;-85
2022/10/15 07:22:44;;;;;;;59.95;33.08;;;13.40;99.90;;;-144.05;88.44;125687.94;5016087;28;20125;-86
2022/10/15 07:25:10;;;;;;;56.15;29.10;;;13.40;99.90;;;-144.05;88.06;125687.94;5016947;28;20029;-84
2022/10/15 07:27:38;;;;;;;56.08;29.25;;;13.50;99.90;;;-144.05;87.65;125687.94;5016336;28;20048;-84
2022/10/15 07:30:07;;;;;;;54.92;29.15;;;13.40;99.90;;;-144.05;87.53;125687.94;5017386;28;20135;-87
2022/10/15 07:32:56;;;;;;;49.70;28.38;;;13.40;99.90;;;-144.05;87.46;125687.94;5035824;28;20034;-86
2022/10/15 07:35:23;;;;;;;55.78;29.63;;;13.40;99.90;;;-144.05;87.45;125687.94;5034590;28;20041;-86
2022/10/15 07:37:49;;;;;;;48.10;27.42;;;13.50;99.90;;;-144.05;87.25;125687.94;5019707;28;20060;-88
2022/10/15 07:40:18;;;;;;;55.25;28.20;;;13.70;99.90;;;-144.05;86.41;125687.94;5023054;28;20025;-89
2022/10/15 07:42:58;;;;;;;49.63;29.25;;;13.80;99.90;;;-144.05;85.82;125687.94;5023709;28;20044;-88
2022/10/15 07:45:26;;;;;;;48.22;27.52;;;13.90;99.90;;;-144.05;85.87;125687.94;5022331;28;20025;-88
2022/10/15 07:47:53;;;;;;;46.95;28.38;;;14.00;99.90;;;-144.05;85.48;125687.94;5021181;28;20036;-85
2022/10/15 07:50:21;;;;;;;43.63;24.67;;;14.00;99.90;;;-144.05;85.01;125687.94;5038940;28;20508;-85
2022/10/15 07:52:47;;;;;;;46.58;27.23;;;14.10;99.90;;;-144.05;85.08;125687.94;5020770;28;20416;-82
2022/10/15 07:55:13;;;;;;;46.45;26.45;;;14.20;99.90;;;-144.05;84.79;125687.94;5022667;28;20029;-83
2022/10/15 07:57:39;;;;;;;45.42;26.83;;;14.20;99.90;;;-144.05;84.65;125687.94;5020981;28;20056;-82
2022/10/15 08:00:06;;;;;;;46.47;27.73;;;14.40;99.90;;;-144.05;84.70;125687.94;5020861;28;20037;-87
2022/10/15 08:02:32;;;;;;;42.70;26.17;;;14.60;99.90;;;-144.05;83.64;125687.94;5020796;28;20033;-86
2022/10/15 08:04:58;;;;;;;44.28;27.20;;;14.90;99.90;;;-144.05;82.82;125687.94;5019218;28;20075;-86
2022/10/15 08:07:24;;;;;;;37.55;26.10;;;15.30;99.90;;;-144.05;80.77;125687.94;5036187;28;20025;-77
2022/10/15 08:09:50;;;;;;;38.97;24.73;;;15.60;99.90;;;-144.05;80.22;125687.94;5032112;28;20037;-87
2022/10/15 08:12:16;;;;;;;37.30;23.65;;;15.70;99.90;;;-144.05;79.22;125687.94;5037955;28;20116;-88
2022/10/15 08:14:42;;;;;;;37.15;23.95;;;15.60;99.90;;;-144.05;80.00;125687.94;5020835;28;20037;-87
2022/10/15 08:17:08;;;;;;;35.92;23.45;;;15.40;99.90;;;-144.05;80.49;125687.94;5020943;28;20029;-84
2022/10/15 08:19:34;;;;;;;35.95;24.15;;;15.30;99.90;;;-144.05;80.68;125687.94;5037152;28;20022;-87
2022/10/15 08:22:00;;;;;;;34.10;21.90;;;15.30;99.90;;;-144.05;81.49;125687.94;5019830;28;20036;-85
2022/10/15 08:24:26;;;;;;;34.05;22.00;;;15.30;99.90;;;-144.05;80.81;125687.94;5020475;28;20401;-86
2022/10/15 08:26:52;;;;;;;32.60;21.25;;;15.30;99.90;;;-144.05;79.85;125687.94;5020909;28;20029;-84
2022/10/15 08:29:18;;;;;;;26.58;19.05;;;15.40;99.90;;;-144.05;78.95;125687.94;5019537;28;20044;-85
2022/10/15 08:31:44;;;;;;;27.95;17.90;;;15.30;99.90;;;-144.05;78.99;125687.94;5019831;28;20034;-86
2022/10/15 08:34:10;;;;;;;28.27;18.83;;;15.40;99.90;;;-144.05;79.65;125687.94;5020432;28;20120;-85
2022/10/15 08:36:36;;;;;;;24.38;17.30;;;15.60;99.90;;;-144.05;78.18;125687.94;5019567;28;20075;-87
2022/10/15 08:39:01;;;;;;;24.73;16.50;;;15.70;99.90;;;-144.05;76.85;125687.94;5019211;28;20037;-84
2022/10/15 08:41:46;;;;;;;24.73;16.50;;;15.80;99.90;;;-144.05;76.79;125687.94;5019591;28;20029;-84
2022/10/15 08:44:43;;;;;;;24.10;16.42;;;15.70;99.90;;;-144.05;76.44;125687.94;5019424;28;20059;-85
2022/10/15 08:48:22;;;;;;;24.20;16.85;;;15.60;99.90;;;-144.05;76.69;125687.94;5020339;28;20030;-86
2022/10/15 08:51:41;;;;;;;21.23;14.23;;;15.70;99.90;;;-144.05;75.87;125687.94;4960657;28;20043;-88
2022/10/15 08:59:11;;;;;;;17.02;12.50;;;15.60;99.90;;;-144.05;76.07;125687.94;4991779;28;20040;-86
2022/10/15 09:02:32;;;;;;;15.80;12.35;;;15.50;99.90;;;-144.05;76.07;125687.94;4961309;28;20034;-89
2022/10/15 09:06:30;;;;;;;13.35;11.13;;;15.40;99.90;;;-144.05;75.48;125687.94;4955315;28;20046;-88
2022/10/15 09:10:21;;;;;;;;;;;;;;;;;;;;;
2022/10/15 09:13:39;;;;;;;;;;;;;;;;;;;;;
2022/10/15 09:16:18;;;;;;;11.30;8.90;;;16.80;99.90;;;-144.05;68.49;125687.94;5036021;28;20045;-87
2022/10/15 09:18:51;;;;;;;13.77;8.73;;;17.40;99.90;;;-144.05;68.12;125687.94;5038236;28;20037;-88
2022/10/15 09:21:21;;;;;;;10.85;8.65;;;17.60;99.90;;;-144.05;66.51;125687.94;5037494;28;20048;-86
2022/10/15 09:23:47;;;;;;;9.52;7.45;;;17.60;99.90;;;-144.05;66.16;125687.94;5019971;28;20500;-85
2022/10/15 09:27:01;;;;;;;12.63;7.97;;;17.90;99.90;;;-144.05;64.23;125687.94;5020123;28;20034;-84
2022/10/15 09:30:00;;;;;;;10.52;7.95;;;18.20;99.90;;;-144.05;63.67;125687.94;5020998;28;20440;-87
2022/10/15 09:32:52;;;;;;;9.32;7.25;;;18.50;99.90;;;-144.05;63.10;125687.94;5020148;28;20036;-83
2022/10/15 09:35:27;;;;;;;9.93;6.70;;;18.70;99.90;;;-144.05;62.44;125687.94;5036773;28;20026;-85
2022/10/15 09:38:30;;;;;;;5.83;5.23;;;18.60;99.90;;;-144.05;62.37;125687.94;5018454;28;20602;-84
2022/10/15 09:41:48;;;;;;;6.05;5.20;;;18.80;99.90;;;-144.05;59.95;125687.94;5019109;28;20366;-86
2022/10/15 09:44:17;;;;;;;6.65;4.32;;;18.90;99.90;;;-144.05;62.78;125687.94;5036754;28;20444;-86
2022/10/15 09:47:00;;;;;;;;;;;;;;;;;;;;;
2022/10/15 09:49:27;;;;;;;4.05;3.08;;;18.00;99.90;;;-144.05;65.64;125687.94;5038171;28;20112;-84
2022/10/15 09:52:25;;;;;;;3.25;2.58;;;17.70;99.90;;;-144.05;65.15;125687.94;5037296;28;20033;-86
2022/10/15 09:55:19;;;;;;;4.85;2.67;;;17.50;99.90;;;-144.05;65.95;125687.94;5019437;28;20489;-87
2022/10/15 09:57:57;;;;;;;2.58;2.30;;;17.60;99.90;;;-144.05;63.46;125687.94;5019854;28;20527;-89
2022/10/15 10:00:23;;;;;;;3.10;1.83;;;18.10;99.90;;;-144.05;62.35;125687.94;5037711;28;20033;-82
2022/10/15 10:03:22;;;;;;;2.08;1.55;;;18.50;99.90;;;-144.05;60.65;125687.94;5020269;28;20129;-83
2022/10/15 10:06:20;;;;;;;2.35;1.88;;;18.70;99.90;;;-144.05;61.69;125687.94;5017890;28;20025;-83
2022/10/15 10:10:31;;;;;;;2.47;1.80;;;18.70;99.90;;;-144.05;62.90;125687.94;5035016;28;20025;-84
2022/10/15 10:13:00;;;;;;;1.63;1.40;;;18.50;99.90;;;-144.05;63.21;125687.94;4966249;28;20026;-81
2022/10/15 10:15:42;;;;;;;4.60;1.75;;;18.30;99.90;;;-144.05;62.44;125687.94;4988923;28;20042;-81
2022/10/15 10:18:22;;;;;;;1.67;1.50;;;18.60;99.90;;;-144.05;60.33;125687.94;5012823;28;20037;-81
2022/10/15 10:21:29;;;;;;;1.20;1.10;;;18.90;99.90;;;-144.05;61.57;125687.94;5019443;28;20025;-87
2022/10/15 10:24:19;;;;;;;1.30;1.00;;;18.70;99.90;;;-144.05;61.55;125687.94;5004892;28;20065;-85
2022/10/15 10:26:55;;;;;;;3.10;0.98;;;18.40;99.90;;;-144.05;64.49;125687.94;5018459;28;20033;-86